createdAt,value
2023-10-12T00:00:26.277Z,3.92
2023-10-12T00:01:27.948Z,4.50
2023-10-12T00:02:29.939Z,4.63
2023-10-12T00:03:32.002Z,5.28
2023-10-12T00:04:47.535Z,4.20
2023-10-12T00:05:49.223Z,4.10
2023-10-12T00:06:52.609Z,4.60
2023-10-12T00:07:57.246Z,5.20
2023-10-12T00:08:59.114Z,4.15
2023-10-12T00:10:10.615Z,4.45
2023-10-12T00:11:12.827Z,4.25
2023-10-12T00:12:22.604Z,4.78
2023-10-12T00:13:29.710Z,4.90
2023-10-12T00:14:33.306Z,4.20
2023-10-12T00:15:39.944Z,4.38
2023-10-12T00:16:44.166Z,5.07
2023-10-12T00:17:46.081Z,4.82
2023-10-12T00:18:50.642Z,5.72
2023-10-12T00:19:52.349Z,5.80
2023-10-12T00:20:55.499Z,6.22
2023-10-12T00:22:10.261Z,5.53
2023-10-12T00:23:13.266Z,5.30
2023-10-12T00:24:18.794Z,5.75
2023-10-12T00:25:21.398Z,5.28
2023-10-12T00:26:23.779Z,5.80
2023-10-12T00:27:27.668Z,5.85
2023-10-12T00:28:39.178Z,6.53
2023-10-12T00:29:40.882Z,6.50
2023-10-12T00:30:43.061Z,6.70
2023-10-12T00:31:44.889Z,6.32
2023-10-12T00:32:46.653Z,5.93
2023-10-12T00:33:50.946Z,6.55
2023-10-12T00:34:54.455Z,6.65
2023-10-12T00:36:02.819Z,6.07
2023-10-12T00:37:05.229Z,6.25
2023-10-12T00:38:25.194Z,6.38
2023-10-12T00:39:30.462Z,5.32
2023-10-12T00:40:33.208Z,5.45
2023-10-12T00:41:39.183Z,4.93
2023-10-12T00:42:45.056Z,5.10
2023-10-12T00:44:08.027Z,4.50
2023-10-12T00:45:20.482Z,4.70
2023-10-12T00:46:40.881Z,4.20
2023-10-12T00:47:45.750Z,4.20
2023-10-12T00:48:50.985Z,4.28
2023-10-12T00:49:52.707Z,3.78
2023-10-12T00:50:57.652Z,4.35
2023-10-12T00:52:09.577Z,5.10
2023-10-12T00:53:21.688Z,5.13
2023-10-12T00:54:42.075Z,4.18
2023-10-12T00:55:44.309Z,4.80
2023-10-12T00:56:45.880Z,4.40
2023-10-12T00:57:47.707Z,4.25
2023-10-12T00:58:49.563Z,4.93
2023-10-12T00:59:54.176Z,4.05
2023-10-12T01:01:05.311Z,4.53
2023-10-12T01:02:10.206Z,4.20
2023-10-12T01:03:31.972Z,4.55
2023-10-12T01:04:33.601Z,4.25
2023-10-12T01:05:37.957Z,4.95
2023-10-12T01:06:39.920Z,4.68
2023-10-12T01:07:43.714Z,4.35
2023-10-12T01:08:47.940Z,4.85
2023-10-12T01:09:49.720Z,4.13
2023-10-12T01:10:51.334Z,5.25
2023-10-12T01:11:59.843Z,4.38
2023-10-12T01:13:02.174Z,4.55
2023-10-12T01:14:03.796Z,4.03
2023-10-12T01:15:17.951Z,4.82
2023-10-12T01:16:24.322Z,4.35
2023-10-12T01:17:26.476Z,4.47
2023-10-12T01:18:29.658Z,4.72
2023-10-12T01:19:46.233Z,5.07
2023-10-12T01:20:50.582Z,4.47
2023-10-12T01:22:14.260Z,4.60
2023-10-12T01:23:15.796Z,4.40
2023-10-12T01:24:18.095Z,4.93
2023-10-12T01:25:31.907Z,4.47
2023-10-12T01:26:34.362Z,5.72
2023-10-12T01:27:42.460Z,4.82
2023-10-12T01:28:50.523Z,4.70
2023-10-12T01:29:59.965Z,4.57
2023-10-12T01:31:02.550Z,4.55
2023-10-12T01:32:25.216Z,4.00
2023-10-12T01:33:27.185Z,4.20
2023-10-12T01:34:30.922Z,4.70
2023-10-12T01:35:38.864Z,4.70
2023-10-12T01:36:44.589Z,4.60
2023-10-12T01:37:49.651Z,4.63
2023-10-12T01:39:14.645Z,4.10
2023-10-12T01:40:23.282Z,5.00
2023-10-12T01:41:28.330Z,4.20
2023-10-12T01:42:42.260Z,4.60
2023-10-12T01:43:44.942Z,4.95
2023-10-12T01:44:47.467Z,4.38
2023-10-12T01:45:55.030Z,5.00
2023-10-12T01:46:57.872Z,4.53
2023-10-12T01:48:18.302Z,4.32
2023-10-12T01:49:20.160Z,4.18
2023-10-12T01:50:22.172Z,4.35
2023-10-12T01:51:26.345Z,4.75
2023-10-12T01:52:27.986Z,4.63
2023-10-12T01:53:33.239Z,5.13
2023-10-12T01:54:34.902Z,4.25
2023-10-12T01:55:36.838Z,4.55
2023-10-12T01:56:38.658Z,4.45
2023-10-12T01:57:48.479Z,4.63
2023-10-12T01:58:52.568Z,4.38
2023-10-12T01:59:56.045Z,4.25
2023-10-12T02:01:05.983Z,4.50
2023-10-12T02:02:09.299Z,4.40
2023-10-12T02:03:19.536Z,4.47
2023-10-12T02:04:22.634Z,4.85
2023-10-12T02:05:26.549Z,4.55
2023-10-12T02:06:31.072Z,4.20
2023-10-12T02:07:34.280Z,4.55
2023-10-12T02:08:56.122Z,4.60
2023-10-12T02:09:59.486Z,4.38
2023-10-12T02:11:22.309Z,5.13
2023-10-12T02:12:26.895Z,4.18
2023-10-12T02:13:33.816Z,5.18
2023-10-12T02:14:35.358Z,4.45
2023-10-12T02:15:37.016Z,5.30
2023-10-12T02:16:39.673Z,5.20
2023-10-12T02:17:43.568Z,4.63
2023-10-12T02:18:48.464Z,4.50
2023-10-12T02:19:50.996Z,4.40
2023-10-12T02:21:07.414Z,4.63
2023-10-12T02:22:24.641Z,4.82
2023-10-12T02:23:33.552Z,4.35
2023-10-12T02:24:36.812Z,4.40
2023-10-12T02:25:41.917Z,5.25
2023-10-12T02:26:49.424Z,4.65
2023-10-12T02:27:57.879Z,4.20
2023-10-12T02:29:12.663Z,4.30
2023-10-12T02:30:19.634Z,4.43
2023-10-12T02:31:30.230Z,4.07
2023-10-12T02:32:47.485Z,4.55
2023-10-12T02:33:49.183Z,4.82
2023-10-12T02:34:57.387Z,4.47
2023-10-12T02:35:59.792Z,4.63
2023-10-12T02:37:13.363Z,4.53
2023-10-12T02:38:16.836Z,4.80
2023-10-12T02:39:22.375Z,4.68
2023-10-12T02:40:28.076Z,4.35
2023-10-12T02:41:29.641Z,4.60
2023-10-12T02:42:40.189Z,4.85
2023-10-12T02:43:51.332Z,4.35
2023-10-12T02:44:54.451Z,4.18
2023-10-12T02:46:02.819Z,4.00
2023-10-12T02:47:13.565Z,4.38
2023-10-12T02:48:24.461Z,4.70
2023-10-12T02:49:26.253Z,4.80
2023-10-12T02:50:34.217Z,4.35
2023-10-12T02:51:38.998Z,4.53
2023-10-12T02:52:44.763Z,4.10
2023-10-12T02:53:48.865Z,4.55
2023-10-12T02:54:55.634Z,4.35
2023-10-12T02:55:59.940Z,4.22
2023-10-12T02:57:05.110Z,4.63
2023-10-12T02:58:20.154Z,4.32
2023-10-12T02:59:21.726Z,4.20
2023-10-12T03:00:45.852Z,4.88
2023-10-12T03:01:50.504Z,4.40
2023-10-12T03:02:54.508Z,4.15
2023-10-12T03:03:56.819Z,5.00
2023-10-12T03:05:07.722Z,4.53
2023-10-12T03:06:10.205Z,3.72
2023-10-12T03:07:14.880Z,4.55
2023-10-12T03:08:18.195Z,4.45
2023-10-12T03:09:27.075Z,4.45
2023-10-12T03:10:28.625Z,4.72
2023-10-12T03:11:33.444Z,4.00
2023-10-12T03:12:42.780Z,3.72
2023-10-12T03:13:55.700Z,4.10
2023-10-12T03:14:57.460Z,4.38
2023-10-12T03:16:01.569Z,4.53
2023-10-12T03:17:06.556Z,4.53
2023-10-12T03:18:12.605Z,4.05
2023-10-12T03:19:26.915Z,4.88
2023-10-12T03:20:30.483Z,3.97
2023-10-12T03:21:35.123Z,4.30
2023-10-12T03:22:36.630Z,4.30
2023-10-12T03:23:39.961Z,4.35
2023-10-12T03:24:52.500Z,4.68
2023-10-12T03:25:54.311Z,3.97
2023-10-12T03:27:04.961Z,4.38
2023-10-12T03:28:25.025Z,4.53
2023-10-12T03:29:27.317Z,4.10
2023-10-12T03:30:44.909Z,3.63
2023-10-12T03:31:47.755Z,5.32
2023-10-12T03:32:51.137Z,11.38
2023-10-12T03:33:55.306Z,6.50
2023-10-12T03:34:57.724Z,7.10
2023-10-12T03:36:04.126Z,9.65
2023-10-12T03:37:08.365Z,6.28
2023-10-12T03:38:14.062Z,5.22
2023-10-12T03:39:26.755Z,4.82
2023-10-12T03:40:47.347Z,4.80
2023-10-12T03:42:07.998Z,5.25
2023-10-12T03:43:12.273Z,4.25
2023-10-12T03:44:20.125Z,5.15
2023-10-12T03:45:40.691Z,4.88
2023-10-12T03:46:47.217Z,3.83
2023-10-12T03:48:04.486Z,4.72
2023-10-12T03:49:06.177Z,5.43
2023-10-12T03:50:11.261Z,3.67
2023-10-12T03:51:25.684Z,3.92
2023-10-12T03:52:31.096Z,4.70
2023-10-12T03:53:38.349Z,4.78
2023-10-12T03:54:40.529Z,5.13
2023-10-12T03:55:49.863Z,4.45
2023-10-12T03:56:54.017Z,4.32
2023-10-12T03:58:07.834Z,4.78
2023-10-12T03:59:09.593Z,4.50
2023-10-12T04:00:11.839Z,4.25
2023-10-12T04:01:22.537Z,4.93
2023-10-12T04:02:25.712Z,5.65
2023-10-12T04:03:37.688Z,5.70
2023-10-12T04:04:46.660Z,6.60
2023-10-12T04:07:01.667Z,7.15
2023-10-12T04:08:06.782Z,7.28
2023-10-12T04:09:16.101Z,7.18
2023-10-12T04:10:36.677Z,7.28
2023-10-12T04:11:48.729Z,6.78
2023-10-12T04:12:54.542Z,6.55
2023-10-12T04:13:59.927Z,6.85
2023-10-12T04:15:06.807Z,7.68
2023-10-12T04:16:08.395Z,7.20
2023-10-12T04:17:28.591Z,6.80
2023-10-12T04:18:30.289Z,6.68
2023-10-12T04:19:33.838Z,6.32
2023-10-12T04:20:35.528Z,6.50
2023-10-12T04:21:37.601Z,5.93
2023-10-12T04:23:02.439Z,5.30
2023-10-12T04:24:17.036Z,5.63
2023-10-12T04:25:30.895Z,5.60
2023-10-12T04:26:35.226Z,5.20
2023-10-12T04:27:40.331Z,4.95
2023-10-12T04:28:50.785Z,5.13
2023-10-12T04:29:57.813Z,4.88
2023-10-12T04:30:59.431Z,4.82
2023-10-12T04:32:17.279Z,4.60
2023-10-12T04:33:19.293Z,4.95
2023-10-12T04:34:27.900Z,4.40
2023-10-12T04:35:41.432Z,4.10
2023-10-12T04:36:46.279Z,4.28
2023-10-12T04:37:48.352Z,4.07
2023-10-12T04:38:58.934Z,4.57
2023-10-12T04:40:15.774Z,4.13
2023-10-12T04:41:17.314Z,4.95
2023-10-12T04:42:21.978Z,4.38
2023-10-12T04:43:25.321Z,5.63
2023-10-12T04:44:26.983Z,4.80
2023-10-12T04:45:31.391Z,4.40
2023-10-12T04:46:41.101Z,5.50
2023-10-12T04:47:47.112Z,5.20
2023-10-12T04:48:49.121Z,4.07
2023-10-12T04:49:50.675Z,4.65
2023-10-12T04:51:00.708Z,4.38
2023-10-12T04:52:02.790Z,4.50
2023-10-12T04:53:10.915Z,4.25
2023-10-12T04:54:24.495Z,4.60
2023-10-12T04:55:29.928Z,4.60
2023-10-12T04:56:37.533Z,4.30
2023-10-12T04:57:39.660Z,5.00
2023-10-12T04:58:57.257Z,4.80
2023-10-12T05:00:11.559Z,4.20
2023-10-12T05:01:21.774Z,4.75
2023-10-12T05:02:32.679Z,5.07
2023-10-12T05:03:37.160Z,5.57
2023-10-12T05:06:04.794Z,4.50
2023-10-12T05:07:18.679Z,3.90
2023-10-12T05:08:21.889Z,4.35
2023-10-12T05:09:23.407Z,5.25
2023-10-12T05:10:37.478Z,4.18
2023-10-12T05:11:39.545Z,5.07
2023-10-12T05:12:41.132Z,4.50
2023-10-12T05:13:44.559Z,4.78
2023-10-12T05:14:46.644Z,4.93
2023-10-12T05:15:56.185Z,4.90
2023-10-12T05:16:57.964Z,4.43
2023-10-12T05:17:59.596Z,4.72
2023-10-12T05:19:01.249Z,4.32
2023-10-12T05:20:04.087Z,4.13
2023-10-12T05:21:09.821Z,4.85
2023-10-12T05:22:13.866Z,4.18
2023-10-12T05:23:15.497Z,4.38
2023-10-12T05:24:17.375Z,4.03
2023-10-12T05:25:19.072Z,3.78
2023-10-12T05:26:26.547Z,4.40
2023-10-12T05:27:30.002Z,4.28
2023-10-12T05:28:32.258Z,4.30
2023-10-12T05:29:39.583Z,4.85
2023-10-12T05:30:48.835Z,4.05
2023-10-12T05:32:09.414Z,4.72
2023-10-12T05:33:29.679Z,4.35
2023-10-12T05:34:35.517Z,4.50
2023-10-12T05:35:54.194Z,4.10
2023-10-12T05:36:55.731Z,4.35
2023-10-12T05:37:57.599Z,4.50
2023-10-12T05:39:14.352Z,4.38
2023-10-12T05:40:18.080Z,4.78
2023-10-12T05:41:38.994Z,4.45
2023-10-12T05:42:41.154Z,5.45
2023-10-12T05:43:42.752Z,4.47
2023-10-12T05:44:44.416Z,4.57
2023-10-12T05:45:46.392Z,4.05
2023-10-12T05:46:52.634Z,4.72
2023-10-12T05:47:54.575Z,4.03
2023-10-12T05:48:59.277Z,3.95
2023-10-12T05:50:00.848Z,4.10
2023-10-12T05:51:02.367Z,4.50
2023-10-12T05:52:06.048Z,4.70
2023-10-12T05:53:08.331Z,4.53
2023-10-12T05:54:09.936Z,4.57
2023-10-12T05:55:22.165Z,4.32
2023-10-12T05:56:24.587Z,4.68
2023-10-12T05:57:31.497Z,4.57
2023-10-12T05:58:35.216Z,4.65
2023-10-12T05:59:39.849Z,4.35
2023-10-12T06:00:53.639Z,4.50
2023-10-12T06:01:56.801Z,3.92
2023-10-12T06:02:58.394Z,4.53
2023-10-12T06:04:00.565Z,4.75
2023-10-12T06:05:02.610Z,4.75
2023-10-12T06:06:04.340Z,4.18
2023-10-12T06:07:06.607Z,5.25
2023-10-12T06:08:08.904Z,4.72
2023-10-12T06:09:14.873Z,4.88
2023-10-12T06:10:16.412Z,5.00
2023-10-12T06:11:19.610Z,5.00
2023-10-12T06:12:25.713Z,5.22
2023-10-12T06:13:41.245Z,4.70
2023-10-12T06:14:54.110Z,4.88
2023-10-12T06:15:55.812Z,4.60
2023-10-12T06:17:01.396Z,4.15
2023-10-12T06:18:03.474Z,4.75
2023-10-12T06:19:06.517Z,4.57
2023-10-12T06:20:16.642Z,4.68
2023-10-12T06:21:20.873Z,4.60
2023-10-12T06:22:24.608Z,4.80
2023-10-12T06:23:26.292Z,4.85
2023-10-12T06:24:37.130Z,5.65
2023-10-12T06:25:45.152Z,5.50
2023-10-12T06:26:52.041Z,5.25
2023-10-12T06:27:55.879Z,4.72
2023-10-12T06:29:00.532Z,4.72
2023-10-12T06:30:07.131Z,6.10
2023-10-12T06:31:09.291Z,5.13
2023-10-12T06:32:18.371Z,5.13
2023-10-12T06:34:24.823Z,4.82
2023-10-12T06:35:29.270Z,5.30
2023-10-12T06:36:39.949Z,5.35
2023-10-12T06:37:51.013Z,4.97
2023-10-12T06:39:24.985Z,6.43
2023-10-12T06:40:27.001Z,5.88
2023-10-12T06:41:34.921Z,5.25
2023-10-12T06:42:43.672Z,8.00
2023-10-12T06:43:45.190Z,6.68
2023-10-12T06:44:51.556Z,7.25
2023-10-12T06:45:53.934Z,5.38
2023-10-12T06:46:58.746Z,5.18
2023-10-12T06:48:20.376Z,4.32
2023-10-12T06:49:30.282Z,5.45
2023-10-12T06:50:35.707Z,5.13
2023-10-12T06:51:37.322Z,4.70
2023-10-12T06:52:39.214Z,4.20
2023-10-12T06:53:52.511Z,4.40
2023-10-12T06:55:00.641Z,4.50
2023-10-12T06:56:17.698Z,4.65
2023-10-12T06:57:19.434Z,4.50
2023-10-12T06:58:21.634Z,5.00
2023-10-12T06:59:29.012Z,4.20
2023-10-12T07:00:57.418Z,4.43
2023-10-12T07:02:11.296Z,4.28
2023-10-12T07:03:12.949Z,4.13
2023-10-12T07:04:16.110Z,4.45
2023-10-12T07:05:21.614Z,4.30
2023-10-12T07:06:23.181Z,4.05
2023-10-12T07:07:29.541Z,4.15
2023-10-12T07:08:31.163Z,4.40
2023-10-12T07:09:43.650Z,4.47
2023-10-12T07:10:52.785Z,4.30
2023-10-12T07:13:00.882Z,4.43
2023-10-12T07:14:06.110Z,4.90
2023-10-12T07:15:12.641Z,5.15
2023-10-12T07:16:17.607Z,4.60
2023-10-12T07:17:19.545Z,4.53
2023-10-12T07:18:23.441Z,4.20
2023-10-12T07:19:25.950Z,4.57
2023-10-12T07:20:33.542Z,4.70
2023-10-12T07:21:35.280Z,4.57
2023-10-12T07:22:38.231Z,4.60
2023-10-12T07:24:46.240Z,5.88
2023-10-12T07:25:52.240Z,5.85
2023-10-12T07:26:53.840Z,5.68
2023-10-12T07:28:00.643Z,4.72
2023-10-12T07:29:09.088Z,5.07
2023-10-12T07:30:31.863Z,4.68
2023-10-12T07:31:42.750Z,4.78
2023-10-12T07:32:56.386Z,7.05
2023-10-12T07:33:58.341Z,12.90
2023-10-12T07:35:08.298Z,8.63
2023-10-12T07:36:12.367Z,4.97
2023-10-12T07:37:15.078Z,5.22
2023-10-12T07:38:36.003Z,4.90
2023-10-12T07:39:43.814Z,5.00
2023-10-12T07:40:58.203Z,4.72
2023-10-12T07:42:02.649Z,4.03
2023-10-12T07:43:08.600Z,4.22
2023-10-12T07:44:10.697Z,4.35
2023-10-12T07:45:18.201Z,4.45
2023-10-12T07:46:37.973Z,4.93
2023-10-12T07:47:42.310Z,4.25
2023-10-12T07:48:45.634Z,5.10
2023-10-12T07:49:53.398Z,4.72
2023-10-12T07:50:54.920Z,4.68
2023-10-12T07:52:26.619Z,4.20
2023-10-12T07:53:30.464Z,5.10
2023-10-12T07:54:52.057Z,5.13
2023-10-12T07:55:55.479Z,5.32
2023-10-12T07:56:56.988Z,4.75
2023-10-12T07:58:01.472Z,4.57
2023-10-12T07:59:03.100Z,5.07
2023-10-12T08:00:11.067Z,4.93
2023-10-12T08:01:23.603Z,4.57
2023-10-12T08:03:04.238Z,4.47
2023-10-12T08:04:21.451Z,5.55
2023-10-12T08:05:26.434Z,5.55
2023-10-12T08:06:37.070Z,5.47
2023-10-12T08:07:58.889Z,4.68
2023-10-12T08:09:21.446Z,4.43
2023-10-12T08:10:31.589Z,4.55
2023-10-12T08:11:36.167Z,3.42
2023-10-12T08:12:40.905Z,4.82
2023-10-12T08:13:49.500Z,6.43
2023-10-12T08:14:54.742Z,10.32
2023-10-12T08:15:57.833Z,9.55
2023-10-12T08:17:18.563Z,7.80
2023-10-12T08:18:42.165Z,6.10
2023-10-12T08:19:44.689Z,4.72
2023-10-12T08:20:54.553Z,4.60
2023-10-12T08:22:00.155Z,4.28
2023-10-12T08:23:03.593Z,4.63
2023-10-12T08:24:22.294Z,5.35
2023-10-12T08:25:28.882Z,4.25
2023-10-12T08:26:36.705Z,4.38
2023-10-12T08:28:01.057Z,4.95
2023-10-12T08:29:10.245Z,4.38
2023-10-12T08:30:16.257Z,4.72
2023-10-12T08:31:21.868Z,5.43
2023-10-12T08:32:30.514Z,4.90
2023-10-12T08:33:50.109Z,4.38
2023-10-12T08:35:00.853Z,4.85
2023-10-12T08:36:24.329Z,4.53
2023-10-12T08:37:28.898Z,4.65
2023-10-12T08:38:41.509Z,4.65
2023-10-12T08:39:59.016Z,4.13
2023-10-12T08:41:33.116Z,4.70
2023-10-12T08:42:35.808Z,4.45
2023-10-12T08:43:46.475Z,5.22
2023-10-12T08:45:00.468Z,6.57
2023-10-12T08:46:07.156Z,8.90
2023-10-12T08:47:11.064Z,6.70
2023-10-12T08:48:18.504Z,6.28
2023-10-12T08:49:49.169Z,5.90
2023-10-12T08:50:59.637Z,6.40
2023-10-12T08:52:06.004Z,4.90
2023-10-12T08:53:08.973Z,4.13
2023-10-12T08:54:16.844Z,4.15
2023-10-12T08:55:26.339Z,4.43
2023-10-12T08:56:33.726Z,4.72
2023-10-12T08:58:03.112Z,4.85
2023-10-12T08:59:05.606Z,4.60
2023-10-12T09:00:26.580Z,4.22
2023-10-12T09:01:33.000Z,4.63
2023-10-12T09:02:40.140Z,4.45
2023-10-12T09:03:47.695Z,4.60
2023-10-12T09:04:50.246Z,4.32
2023-10-12T09:06:01.737Z,4.15
2023-10-12T09:07:04.851Z,3.90
2023-10-12T09:08:06.562Z,4.35
2023-10-12T09:09:08.144Z,4.38
2023-10-12T09:10:30.157Z,4.53
2023-10-12T09:11:39.328Z,4.85
2023-10-12T09:12:41.590Z,4.57
2023-10-12T09:13:49.473Z,4.70
2023-10-12T09:14:56.038Z,4.40
2023-10-12T09:16:04.039Z,4.40
2023-10-12T09:17:06.391Z,4.88
2023-10-12T09:18:11.061Z,4.38
2023-10-12T09:19:30.029Z,4.68
2023-10-12T09:20:32.990Z,4.28
2023-10-12T09:21:40.980Z,4.82
2023-10-12T09:22:42.779Z,7.40
2023-10-12T09:24:07.451Z,9.65
2023-10-12T09:25:15.583Z,7.45
2023-10-12T09:26:21.434Z,7.15
2023-10-12T09:27:37.393Z,8.85
2023-10-12T09:28:46.489Z,7.55
2023-10-12T09:31:01.602Z,5.45
2023-10-12T09:32:35.430Z,6.38
2023-10-12T09:34:00.877Z,4.80
2023-10-12T09:35:15.899Z,4.88
2023-10-12T09:37:22.223Z,4.70
2023-10-12T09:38:23.780Z,5.03
2023-10-12T09:39:29.207Z,5.15
2023-10-12T09:40:36.678Z,4.63
2023-10-12T09:41:40.465Z,5.07
2023-10-12T09:42:42.124Z,4.90
2023-10-12T09:43:45.288Z,4.80
2023-10-12T09:44:47.062Z,4.75
2023-10-12T09:45:49.099Z,4.38
2023-10-12T09:46:56.296Z,4.57
2023-10-12T09:47:59.186Z,5.00
2023-10-12T09:49:07.401Z,4.70
2023-10-12T09:50:14.261Z,4.97
2023-10-12T09:51:18.828Z,5.05
2023-10-12T09:52:22.954Z,4.47
2023-10-12T09:53:32.196Z,4.65
2023-10-12T09:54:48.050Z,4.57
2023-10-12T09:56:11.820Z,4.38
2023-10-12T09:57:29.015Z,4.38
2023-10-12T09:58:33.608Z,4.50
2023-10-12T09:59:39.821Z,4.65
2023-10-12T10:01:01.225Z,4.82
2023-10-12T10:02:05.074Z,4.72
2023-10-12T10:03:10.194Z,4.95
2023-10-12T10:04:27.033Z,4.95
2023-10-12T10:05:53.024Z,6.68
2023-10-12T10:07:19.176Z,5.15
2023-10-12T10:08:21.732Z,4.47
2023-10-12T10:09:42.481Z,5.35
2023-10-12T10:10:44.010Z,4.95
2023-10-12T10:11:46.858Z,5.70
2023-10-12T10:13:54.265Z,5.03
2023-10-12T10:15:11.372Z,4.75
2023-10-12T10:16:16.013Z,5.55
2023-10-12T10:17:25.058Z,5.53
2023-10-12T10:19:31.207Z,4.38
2023-10-12T10:20:52.789Z,4.25
2023-10-12T10:22:06.115Z,4.53
2023-10-12T10:23:15.546Z,5.28
2023-10-12T10:24:25.095Z,4.72
2023-10-12T10:25:55.833Z,4.47
2023-10-12T10:26:59.838Z,4.80
2023-10-12T10:28:11.599Z,4.53
2023-10-12T10:29:18.676Z,4.90
2023-10-12T10:30:39.508Z,4.82
2023-10-12T10:31:44.909Z,4.82
2023-10-12T10:32:46.668Z,4.57
2023-10-12T10:33:52.367Z,4.53
2023-10-12T10:34:57.788Z,4.82
2023-10-12T10:36:13.082Z,4.85
2023-10-12T10:37:49.364Z,5.03
2023-10-12T10:38:53.926Z,4.70
2023-10-12T10:39:58.989Z,4.63
2023-10-12T10:41:08.740Z,4.72
2023-10-12T10:42:11.051Z,4.90
2023-10-12T10:43:16.739Z,4.78
2023-10-12T10:44:22.711Z,4.47
2023-10-12T10:45:26.714Z,5.43
2023-10-12T10:46:28.820Z,4.50
2023-10-12T10:47:33.238Z,5.32
2023-10-12T10:49:00.121Z,4.70
2023-10-12T10:49:57.040Z,4.55
2023-10-12T10:51:00.302Z,5.13
2023-10-12T10:52:08.284Z,4.75
2023-10-12T10:53:09.896Z,4.65
2023-10-12T10:54:19.806Z,4.38
2023-10-12T10:55:25.378Z,4.82
2023-10-12T10:56:37.518Z,5.00
2023-10-12T10:57:39.394Z,5.53
2023-10-12T10:58:41.665Z,5.10
2023-10-12T10:59:48.128Z,5.63
2023-10-12T11:00:57.767Z,7.75
2023-10-12T11:02:00.735Z,7.68
2023-10-12T11:03:04.713Z,6.07
2023-10-12T11:04:10.674Z,6.10
2023-10-12T11:05:20.362Z,5.28
2023-10-12T11:06:25.121Z,5.15
2023-10-12T11:07:26.708Z,4.65
2023-10-12T11:08:28.406Z,4.70
2023-10-12T11:09:32.739Z,4.78
2023-10-12T11:10:35.336Z,4.80
2023-10-12T11:11:46.067Z,4.72
2023-10-12T11:12:49.436Z,4.60
2023-10-12T11:13:53.777Z,5.03
2023-10-12T11:15:08.827Z,4.95
2023-10-12T11:17:24.586Z,4.85
2023-10-12T11:18:26.239Z,5.40
2023-10-12T11:19:28.498Z,5.25
2023-10-12T11:20:43.983Z,4.80
2023-10-12T11:21:47.511Z,4.65
2023-10-12T11:22:49.158Z,4.82
2023-10-12T11:23:52.260Z,5.22
2023-10-12T11:24:58.412Z,4.88
2023-10-12T11:26:05.644Z,4.68
2023-10-12T11:27:09.128Z,4.68
2023-10-12T11:28:38.998Z,4.88
2023-10-12T11:29:50.214Z,5.05
2023-10-12T11:31:03.183Z,9.73
2023-10-12T11:32:12.304Z,24.20
2023-10-12T11:33:14.159Z,38.38
2023-10-12T11:34:24.489Z,36.58
2023-10-12T11:35:41.505Z,19.45
2023-10-12T11:36:47.058Z,13.00
2023-10-12T11:37:48.775Z,9.98
2023-10-12T11:39:00.744Z,8.10
2023-10-12T11:40:07.926Z,7.22
2023-10-12T11:41:17.866Z,6.72
2023-10-12T11:42:19.758Z,5.82
2023-10-12T11:43:22.617Z,5.95
2023-10-12T11:44:47.072Z,5.35
2023-10-12T11:46:02.666Z,5.20
2023-10-12T11:47:11.466Z,4.90
2023-10-12T11:48:21.257Z,5.72
2023-10-12T11:49:22.864Z,5.90
2023-10-12T11:50:36.304Z,5.20
2023-10-12T11:51:54.294Z,5.18
2023-10-12T11:52:56.189Z,5.68
2023-10-12T11:53:58.798Z,5.05
2023-10-12T11:55:02.441Z,5.13
2023-10-12T11:56:30.011Z,5.47
2023-10-12T11:57:32.971Z,5.03
2023-10-12T11:58:34.774Z,5.50
2023-10-12T11:59:36.649Z,5.43
2023-10-12T12:00:38.303Z,5.40
2023-10-12T12:01:41.253Z,4.90
2023-10-12T12:02:43.281Z,5.20
2023-10-12T12:03:46.663Z,5.00
2023-10-12T12:05:01.737Z,5.72
2023-10-12T12:06:12.992Z,5.85
2023-10-12T12:07:14.764Z,5.25
2023-10-12T12:08:16.420Z,5.35
2023-10-12T12:09:19.009Z,5.40
2023-10-12T12:10:40.820Z,5.38
2023-10-12T12:11:42.361Z,5.53
2023-10-12T12:12:43.971Z,5.18
2023-10-12T12:13:48.687Z,4.95
2023-10-12T12:14:50.236Z,5.25
2023-10-12T12:15:56.075Z,5.72
2023-10-12T12:16:58.599Z,6.22
2023-10-12T12:18:01.156Z,5.50
2023-10-12T12:19:02.892Z,5.53
2023-10-12T12:20:08.742Z,5.32
2023-10-12T12:21:15.914Z,5.30
2023-10-12T12:22:17.671Z,5.50
2023-10-12T12:23:20.717Z,5.80
2023-10-12T12:24:22.339Z,5.93
2023-10-12T12:25:33.486Z,6.28
2023-10-12T12:26:35.314Z,5.68
2023-10-12T12:27:39.988Z,6.07
2023-10-12T12:28:44.571Z,5.30
2023-10-12T12:30:02.589Z,5.57
2023-10-12T12:31:11.902Z,5.50
2023-10-12T12:32:14.139Z,5.35
2023-10-12T12:33:18.669Z,5.22
2023-10-12T12:34:39.657Z,5.55
2023-10-12T12:35:42.016Z,5.65
2023-10-12T12:36:43.585Z,5.35
2023-10-12T12:37:45.125Z,5.15
2023-10-12T12:38:49.953Z,5.72
2023-10-12T12:40:23.211Z,5.72
2023-10-12T12:41:25.681Z,6.03
2023-10-12T12:43:30.574Z,6.03
2023-10-12T12:44:32.221Z,5.38
2023-10-12T12:45:36.311Z,4.97
2023-10-12T12:46:38.533Z,5.30
2023-10-12T12:47:40.272Z,5.55
2023-10-12T12:48:46.659Z,5.63
2023-10-12T12:49:48.238Z,6.10
2023-10-12T12:50:49.774Z,5.90
2023-10-12T12:51:51.373Z,5.47
2023-10-12T12:52:52.936Z,6.07
2023-10-12T12:53:54.929Z,6.10
2023-10-12T12:54:56.867Z,6.05
2023-10-12T12:55:58.476Z,5.95
2023-10-12T12:57:00.096Z,6.05
2023-10-12T12:58:01.685Z,6.35
2023-10-12T12:59:05.201Z,5.72
2023-10-12T13:00:09.512Z,6.22
2023-10-12T13:01:11.810Z,5.72
2023-10-12T13:02:15.539Z,6.10
2023-10-12T13:03:18.327Z,5.63
2023-10-12T13:04:20.877Z,5.22
2023-10-12T13:06:27.198Z,5.35
2023-10-12T13:07:29.509Z,5.60
2023-10-12T13:08:31.537Z,5.53
2023-10-12T13:09:35.394Z,5.43
2023-10-12T13:10:37.352Z,5.75
2023-10-12T13:11:38.982Z,5.65
2023-10-12T13:12:46.708Z,5.65
2023-10-12T13:13:50.087Z,6.07
2023-10-12T13:14:51.613Z,5.95
2023-10-12T13:15:53.244Z,6.40
2023-10-12T13:16:56.103Z,5.82
2023-10-12T13:17:58.958Z,6.50
2023-10-12T13:20:04.568Z,5.47
2023-10-12T13:21:07.905Z,5.78
2023-10-12T13:22:09.699Z,5.70
2023-10-12T13:23:14.305Z,6.22
2023-10-12T13:24:16.076Z,6.13
2023-10-12T13:25:19.449Z,6.50
2023-10-12T13:26:23.504Z,6.15
2023-10-12T13:27:33.396Z,6.55
2023-10-12T13:28:35.242Z,5.97
2023-10-12T13:29:37.369Z,6.22
2023-10-12T13:30:39.003Z,5.45
2023-10-12T13:31:40.913Z,6.85
2023-10-12T13:32:48.609Z,5.53
2023-10-12T13:33:51.134Z,6.32
2023-10-12T13:34:53.022Z,6.30
2023-10-12T13:35:57.325Z,6.07
2023-10-12T13:36:58.883Z,6.30
2023-10-12T13:38:04.011Z,6.45
2023-10-12T13:39:10.776Z,6.75
2023-10-12T13:40:16.631Z,6.20
2023-10-12T13:41:19.256Z,6.72
2023-10-12T13:42:22.627Z,6.18
2023-10-12T13:43:27.788Z,6.38
2023-10-12T13:44:31.456Z,7.00
2023-10-12T13:45:33.115Z,6.15
2023-10-12T13:46:39.812Z,7.05
2023-10-12T13:47:44.333Z,7.05
2023-10-12T13:48:50.339Z,6.85
2023-10-12T13:49:55.133Z,6.60
2023-10-12T13:51:05.807Z,6.30
2023-10-12T13:52:13.436Z,6.65
2023-10-12T13:53:16.699Z,6.18
2023-10-12T13:54:19.009Z,6.82
2023-10-12T13:55:21.399Z,6.85
2023-10-12T13:56:25.098Z,7.28
2023-10-12T13:57:27.168Z,7.13
2023-10-12T13:58:28.693Z,6.85
2023-10-12T13:59:30.902Z,7.32
2023-10-12T14:00:35.490Z,7.43
2023-10-12T14:01:38.550Z,7.20
2023-10-12T14:02:40.231Z,7.05
2023-10-12T14:03:46.280Z,7.30
2023-10-12T14:04:50.636Z,7.35
2023-10-12T14:05:52.168Z,6.80
2023-10-12T14:06:58.125Z,6.70
2023-10-12T14:08:00.066Z,7.55
2023-10-12T14:09:01.610Z,7.00
2023-10-12T14:10:06.442Z,7.65
2023-10-12T14:11:08.342Z,7.95
2023-10-12T14:12:11.633Z,7.45
2023-10-12T14:13:16.442Z,7.90
2023-10-12T14:14:18.016Z,7.30
2023-10-12T14:15:20.748Z,7.35
2023-10-12T14:16:22.487Z,7.68
2023-10-12T14:17:25.788Z,9.38
2023-10-12T14:18:32.066Z,14.15
2023-10-12T14:19:37.291Z,20.45
2023-10-12T14:20:40.280Z,16.88
2023-10-12T14:22:45.529Z,9.60
2023-10-12T14:23:48.810Z,8.32
2023-10-12T14:24:50.685Z,8.52
2023-10-12T14:25:52.652Z,8.93
2023-10-12T14:26:59.622Z,9.10
2023-10-12T14:28:01.549Z,7.60
2023-10-12T14:29:09.601Z,8.15
2023-10-12T14:30:19.986Z,7.40
2023-10-12T14:31:22.754Z,7.57
2023-10-12T14:32:26.852Z,7.70
2023-10-12T14:33:31.524Z,6.95
2023-10-12T14:34:33.235Z,8.15
2023-10-12T14:35:36.579Z,7.75
2023-10-12T14:36:39.785Z,7.35
2023-10-12T14:37:41.316Z,7.53
2023-10-12T14:38:45.884Z,6.90
2023-10-12T14:39:47.928Z,7.55
2023-10-12T14:40:49.536Z,7.90
2023-10-12T14:41:51.972Z,7.32
2023-10-12T14:42:53.691Z,8.45
2023-10-12T14:43:56.334Z,8.20
2023-10-12T14:44:58.218Z,7.95
2023-10-12T14:46:03.301Z,8.07
2023-10-12T14:47:07.959Z,7.93
2023-10-12T14:48:12.553Z,8.63
2023-10-12T14:49:15.556Z,7.53
2023-10-12T14:50:19.261Z,8.20
2023-10-12T14:51:22.431Z,7.50
2023-10-12T14:52:24.380Z,7.25
2023-10-12T14:53:29.220Z,6.82
2023-10-12T14:54:32.056Z,7.05
2023-10-12T14:56:35.609Z,7.35
2023-10-12T14:57:39.150Z,6.78
2023-10-12T14:58:41.919Z,7.85
2023-10-12T14:59:43.493Z,7.18
2023-10-12T15:00:45.711Z,8.93
2023-10-12T15:01:49.829Z,8.95
2023-10-12T15:02:55.141Z,8.10
2023-10-12T15:03:56.867Z,8.55
2023-10-12T15:04:59.365Z,8.10
2023-10-12T15:06:02.305Z,10.65
2023-10-12T15:08:09.830Z,8.45